createdAt,value
2023-02-14T00:00:50.090Z,3.38
2023-02-14T00:03:16.822Z,3.35
2023-02-14T00:05:43.429Z,3.32
2023-02-14T00:08:10.289Z,3.29
2023-02-14T00:10:36.885Z,3.24
2023-02-14T00:13:04.681Z,3.22
2023-02-14T00:15:31.319Z,3.18
2023-02-14T00:18:00.923Z,3.17
2023-02-14T00:20:28.463Z,3.17
2023-02-14T00:22:55.190Z,3.13
2023-02-14T00:25:21.766Z,3.10
2023-02-14T00:27:48.387Z,3.05
2023-02-14T00:30:15.365Z,3.04
2023-02-14T00:32:43.052Z,3.00
2023-02-14T00:35:10.702Z,3.01
2023-02-14T00:37:37.723Z,3.01
2023-02-14T00:40:06.333Z,2.99
2023-02-14T00:42:33.117Z,2.95
2023-02-14T00:44:59.671Z,2.93
2023-02-14T00:47:26.353Z,2.89
2023-02-14T00:49:52.940Z,2.86
2023-02-14T00:52:19.514Z,2.84
2023-02-14T00:54:46.176Z,2.79
2023-02-14T00:57:12.768Z,2.77
2023-02-14T00:59:39.341Z,2.72
2023-02-14T01:02:05.938Z,2.74
2023-02-14T01:04:32.599Z,2.72
2023-02-14T01:06:59.116Z,2.71
2023-02-14T01:09:25.642Z,2.71
2023-02-14T01:11:52.177Z,2.71
2023-02-14T01:14:18.701Z,2.68
2023-02-14T01:16:45.440Z,2.63
2023-02-14T01:19:12.074Z,2.62
2023-02-14T01:21:38.616Z,2.57
2023-02-14T01:24:07.671Z,2.53
2023-02-14T01:26:35.185Z,2.53
2023-02-14T01:29:03.149Z,2.50
2023-02-14T01:31:32.574Z,2.48
2023-02-14T01:34:00.311Z,2.44
2023-02-14T01:36:38.867Z,2.42
2023-02-14T01:39:13.483Z,2.38
2023-02-14T01:41:43.178Z,2.35
2023-02-14T01:44:15.368Z,2.34
2023-02-14T01:46:43.841Z,2.33
2023-02-14T01:49:16.401Z,2.30
2023-02-14T01:51:53.110Z,2.29
2023-02-14T01:54:25.983Z,2.28
2023-02-14T01:57:00.310Z,2.27
2023-02-14T01:59:34.550Z,2.23
2023-02-14T02:02:01.287Z,2.24
2023-02-14T02:04:41.119Z,2.25
2023-02-14T02:07:14.931Z,2.24
2023-02-14T02:09:51.298Z,2.25
2023-02-14T02:12:17.965Z,2.23
2023-02-14T02:14:45.743Z,2.22
2023-02-14T02:17:12.276Z,2.22
2023-02-14T02:20:20.631Z,2.18
2023-02-14T02:22:56.282Z,2.17
2023-02-14T02:25:37.956Z,2.16
2023-02-14T02:28:43.463Z,2.14
2023-02-14T02:31:47.930Z,2.12
2023-02-14T02:34:52.278Z,2.11
2023-02-14T02:37:18.712Z,2.11
2023-02-14T02:39:45.243Z,2.10
2023-02-14T02:42:26.856Z,2.09
2023-02-14T02:45:11.099Z,2.09
2023-02-14T02:47:45.995Z,2.05
2023-02-14T02:51:04.426Z,2.06
2023-02-14T02:53:58.034Z,2.07
2023-02-14T02:56:46.415Z,2.05
2023-02-14T02:59:21.850Z,2.05
2023-02-14T03:01:56.794Z,2.02
2023-02-14T03:04:46.331Z,1.97
2023-02-14T03:07:32.061Z,1.99
2023-02-14T03:10:01.475Z,2.00
2023-02-14T03:12:33.811Z,2.00
2023-02-14T03:15:22.636Z,2.00
2023-02-14T03:18:30.007Z,1.97
2023-02-14T03:21:35.331Z,1.97
2023-02-14T03:24:22.485Z,1.97
2023-02-14T03:26:58.090Z,1.96
2023-02-14T03:29:27.597Z,1.96
2023-02-14T03:32:17.500Z,1.99
2023-02-14T03:34:46.810Z,1.97
2023-02-14T03:37:39.377Z,1.95
2023-02-14T03:40:27.259Z,1.95
2023-02-14T03:43:07.928Z,1.93
2023-02-14T03:45:46.013Z,1.95
2023-02-14T03:48:16.466Z,1.95
2023-02-14T03:50:49.685Z,1.90
2023-02-14T03:53:22.850Z,1.91
2023-02-14T03:55:57.955Z,1.91
2023-02-14T03:58:30.222Z,1.90
2023-02-14T04:01:05.442Z,1.87
2023-02-14T04:03:37.496Z,1.84
2023-02-14T04:06:04.356Z,1.86
2023-02-14T04:08:30.956Z,1.85
2023-02-14T04:11:01.798Z,1.83
2023-02-14T04:13:28.821Z,1.82
2023-02-14T04:15:55.385Z,1.79
2023-02-14T04:18:40.441Z,1.78
2023-02-14T04:21:08.194Z,1.79
2023-02-14T04:23:34.793Z,1.75
2023-02-14T04:26:03.579Z,1.72
2023-02-14T04:28:30.871Z,1.67
2023-02-14T04:31:01.008Z,1.66
2023-02-14T04:33:27.900Z,1.65
2023-02-14T04:35:54.864Z,1.65
2023-02-14T04:38:21.561Z,1.60
2023-02-14T04:40:50.017Z,1.60
2023-02-14T04:43:16.654Z,1.58
2023-02-14T04:45:43.215Z,1.53
2023-02-14T04:48:10.104Z,1.53
2023-02-14T04:50:36.690Z,1.51
2023-02-14T04:53:03.274Z,1.46
2023-02-14T04:55:30.165Z,1.44
2023-02-14T04:57:56.803Z,1.46
2023-02-14T05:00:24.114Z,1.46
2023-02-14T05:02:50.670Z,1.44
2023-02-14T05:05:17.279Z,1.42
2023-02-14T05:07:47.624Z,1.40
2023-02-14T05:10:15.297Z,1.38
2023-02-14T05:12:42.032Z,1.36
2023-02-14T05:15:09.540Z,1.34
2023-02-14T05:17:36.281Z,1.34
2023-02-14T05:20:06.705Z,1.31
2023-02-14T05:22:33.337Z,1.29
2023-02-14T05:24:59.903Z,1.29
2023-02-14T05:27:26.422Z,1.25
2023-02-14T05:29:53.106Z,1.22
2023-02-14T05:32:19.658Z,1.20
2023-02-14T05:34:46.234Z,1.18
2023-02-14T05:37:12.808Z,1.15
2023-02-14T05:39:39.456Z,1.13
2023-02-14T05:42:06.015Z,1.07
2023-02-14T05:44:32.584Z,1.08
2023-02-14T05:46:59.153Z,1.08
2023-02-14T05:49:25.757Z,1.06
2023-02-14T05:51:52.315Z,1.05
2023-02-14T05:54:18.901Z,1.03
2023-02-14T05:56:45.502Z,1.03
2023-02-14T05:59:14.129Z,1.00
2023-02-14T06:01:40.877Z,0.98
2023-02-14T06:04:07.522Z,0.97
2023-02-14T06:06:36.334Z,0.95
2023-02-14T06:09:03.382Z,0.92
2023-02-14T06:11:30.195Z,0.92
2023-02-14T06:13:56.851Z,0.91
2023-02-14T06:16:23.580Z,0.90
2023-02-14T06:18:50.146Z,0.89
2023-02-14T06:21:16.732Z,0.88
2023-02-14T06:23:43.298Z,0.87
2023-02-14T06:26:09.943Z,0.86
2023-02-14T06:28:36.532Z,0.85
2023-02-14T06:31:04.883Z,0.83
2023-02-14T06:33:31.703Z,0.82
2023-02-14T06:35:58.327Z,0.82
2023-02-14T06:38:25.040Z,0.81
2023-02-14T06:40:51.566Z,0.80
2023-02-14T06:43:18.085Z,0.78
2023-02-14T06:45:46.583Z,0.77
2023-02-14T06:48:13.161Z,0.77
2023-02-14T06:50:39.833Z,0.78
2023-02-14T06:53:06.449Z,0.78
2023-02-14T06:55:33.086Z,0.80
2023-02-14T06:57:59.677Z,0.80
2023-02-14T07:00:26.296Z,0.80
2023-02-14T07:02:52.950Z,0.81
2023-02-14T07:05:19.634Z,0.81
2023-02-14T07:07:46.511Z,0.83
2023-02-14T07:10:13.433Z,0.84
2023-02-14T07:12:40.390Z,0.85
2023-02-14T07:15:09.254Z,0.87
2023-02-14T07:17:35.875Z,0.89
2023-02-14T07:20:03.562Z,0.88
2023-02-14T07:22:30.475Z,0.90
2023-02-14T07:24:57.336Z,0.92
2023-02-14T07:27:23.937Z,0.91
2023-02-14T07:29:50.645Z,0.92
2023-02-14T07:32:17.481Z,0.98
2023-02-14T07:34:44.641Z,1.05
2023-02-14T07:37:11.346Z,1.08
2023-02-14T07:39:37.904Z,1.11
2023-02-14T07:42:04.521Z,1.19
2023-02-14T07:44:31.119Z,1.21
2023-02-14T07:46:57.641Z,1.25
2023-02-14T07:49:24.307Z,1.29
2023-02-14T07:51:50.851Z,1.33
2023-02-14T07:54:18.686Z,1.37
2023-02-14T07:56:46.156Z,1.38
2023-02-14T07:59:12.729Z,1.45
2023-02-14T08:01:48.617Z,1.48
2023-02-14T08:04:15.173Z,1.49
2023-02-14T08:06:42.885Z,1.58
2023-02-14T08:09:10.642Z,1.64
2023-02-14T08:11:56.163Z,1.67
2023-02-14T08:14:22.985Z,1.73
2023-02-14T08:16:49.824Z,1.77
2023-02-14T08:19:16.332Z,1.86
2023-02-14T08:21:43.333Z,1.91
2023-02-14T08:24:09.926Z,1.93
2023-02-14T08:26:36.534Z,1.99
2023-02-14T08:29:03.138Z,2.04
2023-02-14T08:31:36.496Z,2.09
2023-02-14T08:34:07.148Z,2.13
2023-02-14T08:36:34.857Z,2.21
2023-02-14T08:39:04.036Z,2.28
2023-02-14T08:41:30.829Z,2.33
2023-02-14T08:43:57.486Z,2.40
2023-02-14T08:46:24.091Z,2.47
2023-02-14T08:48:52.223Z,2.56
2023-02-14T08:51:19.296Z,2.69
2023-02-14T08:53:46.336Z,2.79
2023-02-14T08:56:17.839Z,2.89
2023-02-14T08:58:44.394Z,2.99
2023-02-14T09:01:13.995Z,3.07
2023-02-14T09:03:40.676Z,3.17
2023-02-14T09:06:09.980Z,3.27
2023-02-14T09:08:38.124Z,3.39
2023-02-14T09:11:14.356Z,3.49
2023-02-14T09:13:42.930Z,3.59
2023-02-14T09:16:11.630Z,3.68
2023-02-14T09:18:38.827Z,3.76
2023-02-14T09:21:10.503Z,3.90
2023-02-14T09:23:39.209Z,4.08
2023-02-14T09:26:09.124Z,4.38
2023-02-14T09:28:46.398Z,4.80
2023-02-14T09:31:13.168Z,5.25
2023-02-14T09:33:43.625Z,5.72
2023-02-14T09:36:15.842Z,6.20
2023-02-14T09:38:44.818Z,6.66
2023-02-14T09:41:49.479Z,7.22
2023-02-14T09:44:35.152Z,7.67
2023-02-14T09:47:16.210Z,8.07
2023-02-14T09:49:43.983Z,8.45
2023-02-14T09:52:16.372Z,8.75
2023-02-14T09:54:49.221Z,9.04
2023-02-14T09:57:38.933Z,9.37
2023-02-14T10:00:24.082Z,9.54
2023-02-14T10:03:00.405Z,9.78
2023-02-14T10:05:32.250Z,10.04
2023-02-14T10:08:36.112Z,10.26
2023-02-14T10:11:10.081Z,10.46
2023-02-14T10:13:50.032Z,10.76
2023-02-14T10:16:54.240Z,10.97
2023-02-14T10:19:38.311Z,11.09
2023-02-14T10:22:14.189Z,11.26
2023-02-14T10:24:50.996Z,11.37
2023-02-14T10:27:32.681Z,11.55
2023-02-14T10:29:59.476Z,11.69
2023-02-14T10:32:45.121Z,11.79
2023-02-14T10:35:38.697Z,11.96
2023-02-14T10:38:28.638Z,12.00
2023-02-14T10:41:31.938Z,11.99
2023-02-14T10:44:40.783Z,12.13
2023-02-14T10:47:18.133Z,12.32
2023-02-14T10:50:03.240Z,12.46
2023-02-14T10:52:40.182Z,12.61
2023-02-14T10:55:49.257Z,12.95
2023-02-14T10:58:21.144Z,13.09
2023-02-14T11:01:03.457Z,13.31
2023-02-14T11:03:30.494Z,13.39
2023-02-14T11:05:57.277Z,13.46
2023-02-14T11:08:38.002Z,13.65
2023-02-14T11:11:29.216Z,13.77
2023-02-14T11:13:56.090Z,13.91
2023-02-14T11:16:35.338Z,14.01
2023-02-14T11:19:36.077Z,14.02
2023-02-14T11:22:04.312Z,14.03
2023-02-14T11:24:41.426Z,14.09
2023-02-14T11:27:19.410Z,14.18
2023-02-14T11:29:52.213Z,14.40
2023-02-14T11:32:34.308Z,14.43
2023-02-14T11:35:20.650Z,14.54
2023-02-14T11:37:53.561Z,14.47
2023-02-14T11:40:37.286Z,14.41
2023-02-14T11:43:15.675Z,14.38
2023-02-14T11:45:44.462Z,14.25
2023-02-14T11:48:37.655Z,14.17
2023-02-14T11:51:14.959Z,13.99
2023-02-14T11:53:53.869Z,13.93
2023-02-14T11:56:22.113Z,13.79
2023-02-14T11:59:03.721Z,13.65
2023-02-14T12:01:34.524Z,13.50
2023-02-14T12:04:07.484Z,13.33
2023-02-14T12:06:41.074Z,13.26
2023-02-14T12:09:29.486Z,13.11
2023-02-14T12:12:14.721Z,13.05
2023-02-14T12:14:41.853Z,13.01
2023-02-14T12:17:11.466Z,12.89
2023-02-14T12:20:08.931Z,12.69
2023-02-14T12:22:47.451Z,12.61
2023-02-14T12:25:27.371Z,12.50
2023-02-14T12:28:03.557Z,12.53
2023-02-14T12:30:35.177Z,12.51
2023-02-14T12:33:06.641Z,12.47
2023-02-14T12:35:54.917Z,12.46
2023-02-14T12:38:43.423Z,12.44
2023-02-14T12:41:42.926Z,12.32
2023-02-14T12:44:35.654Z,12.30
2023-02-14T12:47:16.531Z,12.26
2023-02-14T12:50:06.166Z,12.24
2023-02-14T12:52:57.246Z,12.15
2023-02-14T12:56:00.342Z,12.14
2023-02-14T12:58:45.049Z,12.18
2023-02-14T13:01:12.162Z,12.16
2023-02-14T13:03:57.956Z,12.13
2023-02-14T13:06:49.587Z,12.07
2023-02-14T13:09:40.474Z,12.05
2023-02-14T13:12:36.396Z,12.04
2023-02-14T13:15:46.716Z,12.06
2023-02-14T13:18:50.835Z,12.04
2023-02-14T13:21:24.372Z,12.06
2023-02-14T13:24:25.511Z,12.05
2023-02-14T13:26:59.775Z,12.03
2023-02-14T13:29:36.142Z,12.02
2023-02-14T13:32:04.544Z,11.98
2023-02-14T13:34:41.568Z,12.00
2023-02-14T13:37:12.820Z,11.97
2023-02-14T13:39:56.809Z,11.97
2023-02-14T13:42:48.167Z,11.96
2023-02-14T13:45:30.536Z,11.92
2023-02-14T13:48:09.974Z,11.88
2023-02-14T13:50:50.210Z,11.89
2023-02-14T13:53:34.708Z,11.87
2023-02-14T13:56:23.369Z,11.83
2023-02-14T13:59:01.046Z,11.88
2023-02-14T14:01:32.275Z,11.86
2023-02-14T14:04:19.777Z,11.82
2023-02-14T14:07:23.288Z,11.84
2023-02-14T14:09:49.958Z,11.85
2023-02-14T14:12:28.769Z,11.82
2023-02-14T14:15:07.990Z,11.80
2023-02-14T14:17:36.446Z,11.79
2023-02-14T14:20:25.769Z,11.78
2023-02-14T14:22:58.850Z,11.79
2023-02-14T14:25:39.491Z,11.79
2023-02-14T14:28:26.591Z,11.82
2023-02-14T14:30:53.747Z,11.79
2023-02-14T14:33:33.157Z,11.78
2023-02-14T14:36:07.675Z,11.76
2023-02-14T14:38:45.643Z,11.79
2023-02-14T14:41:12.274Z,11.87
2023-02-14T14:43:40.518Z,11.98
2023-02-14T14:46:15.745Z,12.04
2023-02-14T14:48:52.110Z,12.05
2023-02-14T14:51:33.332Z,12.03
2023-02-14T14:54:06.969Z,12.04
2023-02-14T14:56:57.128Z,12.01
2023-02-14T14:59:30.816Z,11.93
2023-02-14T15:01:57.726Z,11.88
2023-02-14T15:04:35.000Z,11.85
2023-02-14T15:07:34.633Z,11.82
2023-02-14T15:10:01.953Z,11.78
2023-02-14T15:12:48.481Z,11.74
2023-02-14T15:15:18.888Z,11.72
2023-02-14T15:17:47.136Z,11.72
2023-02-14T15:20:21.150Z,11.67
2023-02-14T15:22:51.712Z,11.65
2023-02-14T15:25:44.549Z,11.60
2023-02-14T15:28:26.122Z,11.57
2023-02-14T15:30:59.202Z,11.54
2023-02-14T15:33:26.904Z,11.46
2023-02-14T15:35:54.251Z,11.45
2023-02-14T15:38:23.848Z,11.43
2023-02-14T15:40:51.915Z,11.38
2023-02-14T15:43:18.554Z,11.38
2023-02-14T15:45:50.300Z,11.34
2023-02-14T15:48:28.556Z,11.33
2023-02-14T15:50:59.136Z,11.28
2023-02-14T15:53:35.024Z,11.27
2023-02-14T15:56:06.246Z,11.23
2023-02-14T15:58:36.159Z,11.22
2023-02-14T16:01:04.140Z,11.16
2023-02-14T16:03:38.774Z,11.10
2023-02-14T16:06:05.651Z,11.04
2023-02-14T16:08:41.051Z,11.01
2023-02-14T16:11:32.514Z,10.98
2023-02-14T16:14:19.278Z,10.93
2023-02-14T16:16:57.759Z,10.86
2023-02-14T16:19:44.923Z,10.79
2023-02-14T16:22:32.145Z,10.74
2023-02-14T16:24:59.387Z,10.66
2023-02-14T16:27:25.987Z,10.62
2023-02-14T16:29:52.730Z,10.54
2023-02-14T16:32:24.289Z,10.44
2023-02-14T16:34:51.336Z,10.39
2023-02-14T16:37:25.002Z,10.30
2023-02-14T16:39:54.534Z,10.20
2023-02-14T16:42:21.198Z,10.09
2023-02-14T16:44:48.488Z,10.01
2023-02-14T16:47:17.218Z,9.93
2023-02-14T16:49:44.084Z,9.83
2023-02-14T16:52:17.113Z,9.75
2023-02-14T16:54:44.235Z,9.70
2023-02-14T16:57:20.322Z,9.61
2023-02-14T16:59:47.343Z,9.52
2023-02-14T17:02:14.235Z,9.46
2023-02-14T17:04:40.815Z,9.36
2023-02-14T17:07:08.096Z,9.26
2023-02-14T17:09:41.257Z,9.18
2023-02-14T17:12:16.898Z,9.10
2023-02-14T17:14:49.620Z,9.00
2023-02-14T17:17:16.851Z,8.90
2023-02-14T17:19:44.182Z,8.82
2023-02-14T17:22:13.521Z,8.73
2023-02-14T17:24:40.647Z,8.67
2023-02-14T17:27:08.510Z,8.61
2023-02-14T17:29:35.731Z,8.50
2023-02-14T17:32:02.461Z,8.40
2023-02-14T17:34:33.210Z,8.33
2023-02-14T17:36:59.834Z,8.22
2023-02-14T17:39:26.813Z,8.16
2023-02-14T17:41:53.371Z,8.05
2023-02-14T17:44:19.935Z,8.00
2023-02-14T17:46:46.572Z,7.92
2023-02-14T17:49:13.114Z,7.86
2023-02-14T17:51:39.617Z,7.79
2023-02-14T17:54:06.213Z,7.69
2023-02-14T17:56:33.002Z,7.63
2023-02-14T17:58:59.867Z,7.55
2023-02-14T18:01:31.392Z,7.48
2023-02-14T18:03:58.197Z,7.42
2023-02-14T18:06:26.718Z,7.35
2023-02-14T18:08:56.714Z,7.27
2023-02-14T18:11:26.079Z,7.21
2023-02-14T18:13:56.667Z,7.15
2023-02-14T18:16:24.832Z,7.07
2023-02-14T18:18:52.311Z,7.03
2023-02-14T18:21:21.654Z,6.96
2023-02-14T18:23:48.811Z,6.90
2023-02-14T18:26:18.009Z,6.87
2023-02-14T18:28:44.894Z,6.81
2023-02-14T18:31:18.116Z,6.74
2023-02-14T18:33:46.722Z,6.70
2023-02-14T18:36:16.510Z,6.64
2023-02-14T18:38:45.053Z,6.57
2023-02-14T18:41:14.325Z,6.49
2023-02-14T18:43:41.887Z,6.43
2023-02-14T18:46:11.456Z,6.42
2023-02-14T18:48:38.454Z,6.34
2023-02-14T18:51:10.542Z,6.31
2023-02-14T18:53:38.401Z,6.23
2023-02-14T18:56:06.659Z,6.18
2023-02-14T18:58:34.409Z,6.12
2023-02-14T19:01:13.045Z,6.08
2023-02-14T19:03:40.680Z,6.02
2023-02-14T19:06:09.402Z,5.98
2023-02-14T19:08:39.570Z,5.96
2023-02-14T19:11:18.423Z,5.91
2023-02-14T19:13:46.176Z,5.88
2023-02-14T19:16:19.492Z,5.85
2023-02-14T19:18:47.019Z,5.79
2023-02-14T19:21:20.145Z,5.78
2023-02-14T19:23:47.401Z,5.73
2023-02-14T19:26:24.705Z,5.68
2023-02-14T19:28:56.376Z,5.63
2023-02-14T19:31:23.472Z,5.60
2023-02-14T19:33:50.569Z,5.54
2023-02-14T19:36:19.413Z,5.47
2023-02-14T19:38:49.502Z,5.43
2023-02-14T19:41:26.468Z,5.39
2023-02-14T19:43:57.521Z,5.35
2023-02-14T19:46:26.170Z,5.29
2023-02-14T19:48:52.994Z,5.30
2023-02-14T19:51:25.915Z,5.23
2023-02-14T19:53:53.261Z,5.18
2023-02-14T19:56:21.389Z,5.13
2023-02-14T19:58:49.083Z,5.11
2023-02-14T20:01:36.840Z,5.08
2023-02-14T20:04:07.645Z,5.02
2023-02-14T20:06:34.249Z,4.98
2023-02-14T20:09:00.796Z,4.94
2023-02-14T20:11:35.601Z,4.89
2023-02-14T20:14:03.597Z,4.85
2023-02-14T20:16:32.081Z,4.81
2023-02-14T20:19:01.781Z,4.87
2023-02-14T20:21:28.582Z,4.83
2023-02-14T20:24:00.803Z,4.76
2023-02-14T20:26:32.940Z,4.74
2023-02-14T20:29:03.639Z,4.71
2023-02-14T20:31:32.010Z,4.66
2023-02-14T20:33:58.983Z,4.60
2023-02-14T20:36:25.902Z,4.56
2023-02-14T20:39:01.453Z,4.53
2023-02-14T20:41:29.052Z,4.51
2023-02-14T20:44:03.340Z,4.45
2023-02-14T20:46:31.195Z,4.42
2023-02-14T20:48:57.760Z,4.41
2023-02-14T20:51:24.419Z,4.38
2023-02-14T20:53:51.231Z,4.33
2023-02-14T20:56:18.678Z,4.27
2023-02-14T20:58:46.005Z,4.26
2023-02-14T21:01:14.328Z,4.25
2023-02-14T21:03:43.053Z,4.21
2023-02-14T21:06:13.756Z,4.19
2023-02-14T21:08:42.485Z,4.19
2023-02-14T21:11:11.748Z,4.17
2023-02-14T21:13:39.288Z,4.12
2023-02-14T21:16:12.277Z,4.12
2023-02-14T21:18:39.185Z,4.08
2023-02-14T21:21:06.607Z,4.06
2023-02-14T21:23:33.518Z,3.97
2023-02-14T21:26:00.110Z,3.94
2023-02-14T21:28:26.853Z,3.94
2023-02-14T21:31:02.570Z,3.88
2023-02-14T21:33:32.003Z,3.85
2023-02-14T21:36:06.069Z,3.79
2023-02-14T21:38:32.844Z,3.79
2023-02-14T21:41:04.949Z,3.80
2023-02-14T21:43:36.995Z,3.76
2023-02-14T21:46:08.656Z,3.74
2023-02-14T21:48:54.073Z,3.70
2023-02-14T21:51:21.827Z,3.63
2023-02-14T21:53:48.998Z,3.60
2023-02-14T21:56:19.624Z,3.54
2023-02-14T21:58:49.041Z,3.53
2023-02-14T22:01:18.281Z,3.51
2023-02-14T22:03:45.221Z,3.46
2023-02-14T22:06:13.228Z,3.44
2023-02-14T22:08:40.413Z,3.41
2023-02-14T22:11:09.604Z,3.36
2023-02-14T22:13:36.349Z,3.33
2023-02-14T22:16:05.629Z,3.35
2023-02-14T22:18:32.638Z,3.32
2023-02-14T22:21:07.211Z,3.29
2023-02-14T22:23:34.267Z,3.27
2023-02-14T22:26:19.310Z,3.24
2023-02-14T22:28:48.388Z,3.20
2023-02-14T22:31:17.653Z,3.19
2023-02-14T22:33:44.855Z,3.16
2023-02-14T22:36:11.426Z,3.12
2023-02-14T22:38:38.243Z,3.08
2023-02-14T22:41:09.368Z,3.06
2023-02-14T22:43:37.528Z,3.05
2023-02-14T22:46:13.298Z,3.03
2023-02-14T22:48:40.534Z,2.97
2023-02-14T22:51:17.813Z,2.97
2023-02-14T22:53:44.409Z,2.95
2023-02-14T22:56:33.052Z,2.91
2023-02-14T22:59:05.325Z,2.87
2023-02-14T23:01:34.359Z,2.90
2023-02-14T23:04:03.276Z,2.85
2023-02-14T23:06:32.411Z,2.84
2023-02-14T23:09:00.548Z,2.84
2023-02-14T23:11:29.608Z,2.81
2023-02-14T23:14:14.953Z,2.75
2023-02-14T23:17:00.808Z,2.67
2023-02-14T23:19:49.057Z,2.69
2023-02-14T23:22:25.210Z,2.66
2023-02-14T23:24:53.806Z,2.66
2023-02-14T23:27:23.268Z,2.64
2023-02-14T23:29:49.898Z,2.60
2023-02-14T23:32:16.683Z,2.56
2023-02-14T23:34:44.735Z,2.52
2023-02-14T23:37:13.666Z,2.48
2023-02-14T23:39:41.430Z,2.46
2023-02-14T23:42:16.408Z,2.47
2023-02-14T23:44:44.733Z,2.47
2023-02-14T23:47:13.325Z,2.45
2023-02-14T23:49:40.991Z,2.41
2023-02-14T23:52:12.988Z,2.40
2023-02-14T23:54:39.834Z,2.38
2023-02-14T23:57:08.129Z,2.33
2023-02-14T23:59:35.072Z,2.34
